Time;durP1;ratioP1;P1;durP2;ratioP2;P2;SDS_P1;SDS_P2;PMS_P1;PMS_P2;Temp;Humidity;BMP_temperature;BMP_pressure;BME280_temperature;BME280_humidity;BME280_pressure;Samples;Min_cycle;Max_cycle;Signal;HPM_P1;HPM_P2
2023/09/29 00:00:23;;;;;;;17.30;9.50;;;;;;;11.60;100.00;101655.90;109456;1245;72541;-77
2023/09/29 00:03:12;;;;;;;20.00;9.40;;;;;;;11.48;100.00;101655.58;109627;1244;73943;-76
2023/09/29 00:05:45;;;;;;;13.20;8.80;;;;;;;11.38;100.00;101657.04;109348;1243;70687;-77
2023/09/29 00:08:16;;;;;;;18.40;9.00;;;;;;;11.29;100.00;101655.86;109594;1244;73547;-76
2023/09/29 00:10:45;;;;;;;17.20;9.40;;;;;;;11.25;100.00;101661.52;109520;1245;63259;-77
2023/09/29 00:13:14;;;;;;;17.20;9.20;;;;;;;11.25;100.00;101660.14;109494;1246;61319;-77
2023/09/29 00:15:43;;;;;;;21.50;9.80;;;;;;;11.21;100.00;101661.02;109587;1242;73118;-78
2023/09/29 00:18:12;;;;;;;15.10;9.60;;;;;;;11.19;100.00;101659.42;109408;1245;72735;-77
2023/09/29 00:20:40;;;;;;;16.50;9.60;;;;;;;11.16;100.00;101665.88;109614;1244;70564;-77
2023/09/29 00:23:09;;;;;;;14.70;9.90;;;;;;;11.14;100.00;101664.40;109392;1244;73621;-77
2023/09/29 00:25:38;;;;;;;17.70;9.90;;;;;;;11.13;100.00;101666.55;109479;1245;57705;-77
2023/09/29 00:28:07;;;;;;;15.40;9.40;;;;;;;11.09;100.00;101668.90;109502;1243;57220;-76
2023/09/29 00:30:36;;;;;;;15.20;9.60;;;;;;;11.06;100.00;101668.41;109649;1244;72357;-76
2023/09/29 00:33:05;;;;;;;17.10;9.80;;;;;;;11.05;100.00;101673.67;109630;1243;71902;-77
2023/09/29 00:35:34;;;;;;;16.70;10.20;;;;;;;11.03;100.00;101673.77;109583;1242;59798;-77
2023/09/29 00:38:03;;;;;;;16.20;9.60;;;;;;;10.99;100.00;101670.91;109637;1244;72808;-77
2023/09/29 00:40:32;;;;;;;19.20;10.10;;;;;;;10.94;100.00;101675.73;109360;1244;62102;-77
2023/09/29 00:43:03;;;;;;;17.90;9.90;;;;;;;10.97;100.00;101673.32;109544;1244;61577;-77
2023/09/29 00:45:33;;;;;;;17.80;10.40;;;;;;;10.98;100.00;101672.19;109476;1244;74240;-76
2023/09/29 00:48:08;;;;;;;17.20;9.50;;;;;;;10.95;100.00;101671.34;109429;1243;61972;-77
2023/09/29 00:50:38;;;;;;;16.80;10.30;;;;;;;10.92;100.00;101672.02;109569;1243;59070;-77
2023/09/29 00:53:14;;;;;;;16.30;10.20;;;;;;;10.88;100.00;101670.66;109408;1244;73800;-77
2023/09/29 00:55:45;;;;;;;20.40;9.50;;;;;;;10.83;100.00;101674.13;109524;1244;62975;-77
2023/09/29 00:58:15;;;;;;;15.70;9.70;;;;;;;10.80;100.00;101675.45;109474;1242;60865;-77
2023/09/29 01:00:45;;;;;;;17.30;9.80;;;;;;;10.81;100.00;101673.31;109644;1243;62669;-77
2023/09/29 01:03:15;;;;;;;19.70;11.00;;;;;;;10.80;100.00;101673.56;109576;1243;60715;-77
2023/09/29 01:05:47;;;;;;;20.10;10.10;;;;;;;10.86;100.00;101680.88;109510;1243;59852;-77
2023/09/29 01:08:20;;;;;;;17.90;10.80;;;;;;;11.00;100.00;101679.39;109633;1243;73881;-77
2023/09/29 01:10:49;;;;;;;16.20;9.20;;;;;;;10.96;100.00;101678.40;109519;1244;63397;-77
2023/09/29 01:13:18;;;;;;;18.20;10.20;;;;;;;10.84;100.00;101677.50;109393;1242;57692;-77
2023/09/29 01:15:47;;;;;;;20.30;10.10;;;;;;;10.71;100.00;101674.61;109623;1244;62743;-77
2023/09/29 01:18:16;;;;;;;21.20;10.30;;;;;;;10.67;100.00;101678.49;109383;1243;61441;-76
2023/09/29 01:20:45;;;;;;;20.10;11.30;;;;;;;10.74;100.00;101681.93;109420;1243;59928;-75
2023/09/29 01:23:14;;;;;;;18.90;9.90;;;;;;;10.79;100.00;101680.09;109386;1244;62452;-75
2023/09/29 01:25:43;;;;;;;19.50;10.30;;;;;;;10.72;100.00;101681.32;109333;1245;57640;-75
2023/09/29 01:28:12;;;;;;;20.10;10.00;;;;;;;10.64;100.00;101683.56;109363;1243;57532;-75
2023/09/29 01:30:41;;;;;;;20.80;10.60;;;;;;;10.68;100.00;101679.86;109303;1243;73436;-76
2023/09/29 01:33:10;;;;;;;18.30;10.60;;;;;;;10.61;100.00;101680.05;109510;1243;61863;-76
2023/09/29 01:35:43;;;;;;;16.90;10.60;;;;;;;10.55;100.00;101681.66;109423;1243;60053;-77
2023/09/29 01:38:13;;;;;;;18.10;10.70;;;;;;;10.59;100.00;101682.41;109489;1244;72576;-76
2023/09/29 01:40:45;;;;;;;19.80;10.30;;;;;;;10.55;100.00;101682.98;109343;1245;63566;-76
2023/09/29 01:43:16;;;;;;;20.30;11.00;;;;;;;10.49;100.00;101689.43;109417;1243;62127;-76
2023/09/29 01:45:45;;;;;;;21.00;10.20;;;;;;;10.46;100.00;101688.40;109499;1243;72687;-77
2023/09/29 01:48:14;;;;;;;16.50;11.00;;;;;;;10.44;100.00;101686.12;109413;1244;72516;-76
2023/09/29 01:50:43;;;;;;;20.10;11.00;;;;;;;10.38;100.00;101686.08;109477;1243;70822;-76
2023/09/29 01:53:12;;;;;;;25.90;11.00;;;;;;;10.38;100.00;101687.32;109591;1244;74238;-77
2023/09/29 01:55:40;;;;;;;16.50;10.70;;;;;;;10.45;100.00;101694.58;109440;1243;63128;-77
2023/09/29 01:58:09;;;;;;;20.60;10.60;;;;;;;10.50;100.00;101691.31;109539;1243;57177;-77
2023/09/29 02:00:38;;;;;;;18.90;11.20;;;;;;;10.48;100.00;101695.25;109540;1243;72689;-77
2023/09/29 02:03:07;;;;;;;18.80;10.80;;;;;;;10.46;100.00;101690.00;109544;1243;61688;-77
2023/09/29 02:05:38;;;;;;;18.80;10.60;;;;;;;10.44;100.00;101689.59;109620;1243;70475;-76
2023/09/29 02:08:09;;;;;;;22.30;11.20;;;;;;;10.34;100.00;101688.73;109602;1244;74182;-77
2023/09/29 02:10:38;;;;;;;17.80;11.10;;;;;;;10.31;100.00;101689.98;109593;1244;57514;-77
2023/09/29 02:13:08;;;;;;;17.90;11.40;;;;;;;10.21;100.00;101691.85;109428;1243;57697;-77
2023/09/29 02:15:36;;;;;;;15.80;10.80;;;;;;;10.15;100.00;101696.56;109496;1244;73326;-77
2023/09/29 02:18:06;;;;;;;20.90;10.70;;;;;;;10.06;100.00;101692.50;109416;1244;62470;-77
2023/09/29 02:20:39;;;;;;;21.40;11.60;;;;;;;10.00;100.00;101691.77;109538;1244;69686;-77
2023/09/29 02:23:08;;;;;;;18.00;12.10;;;;;;;10.01;100.00;101697.31;109520;1243;73472;-77
2023/09/29 02:25:36;;;;;;;21.90;11.80;;;;;;;9.99;100.00;101694.27;109629;1244;63114;-77
2023/09/29 02:28:05;;;;;;;19.20;10.40;;;;;;;9.93;100.00;101695.64;109624;1243;57715;-77
2023/09/29 02:30:34;;;;;;;19.50;11.10;;;;;;;9.84;100.00;101695.60;109464;1243;62768;-77
2023/09/29 02:33:03;;;;;;;18.00;12.00;;;;;;;9.74;100.00;101694.56;109506;1244;60710;-77
2023/09/29 02:35:32;;;;;;;16.90;11.20;;;;;;;9.67;100.00;101690.77;109517;1244;59927;-76
2023/09/29 02:38:02;;;;;;;16.60;10.70;;;;;;;9.71;100.00;101693.02;109451;1243;73303;-76
2023/09/29 02:40:31;;;;;;;19.70;11.60;;;;;;;9.70;100.00;101693.23;109450;1246;57490;-76
2023/09/29 02:43:00;;;;;;;20.50;11.40;;;;;;;9.64;100.00;101691.12;109599;1244;60166;-76
2023/09/29 02:45:29;;;;;;;17.40;11.00;;;;;;;9.62;100.00;101695.04;109456;1245;62691;-76
2023/09/29 02:47:58;;;;;;;22.80;11.60;;;;;;;9.62;100.00;101691.77;109494;1244;72106;-76
2023/09/29 02:50:27;;;;;;;17.10;11.20;;;;;;;9.65;100.00;101688.48;109624;1243;70314;-76
2023/09/29 02:52:56;;;;;;;17.00;11.40;;;;;;;9.59;100.00;101688.10;109626;1244;73352;-76
2023/09/29 02:55:26;;;;;;;14.90;10.60;;;;;;;9.66;100.00;101688.94;109597;1244;62459;-76
2023/09/29 02:57:54;;;;;;;20.70;11.90;;;;;;;9.69;100.00;101685.66;109454;1243;62066;-76
2023/09/29 03:00:26;;;;;;;20.40;11.70;;;;;;;9.65;100.00;101686.73;109612;1243;74304;-76
2023/09/29 03:02:55;;;;;;;17.60;11.60;;;;;;;9.60;100.00;101685.77;109697;1241;73638;-76
2023/09/29 03:05:25;;;;;;;16.80;10.90;;;;;;;9.55;100.00;101690.22;109648;1243;70614;-76
2023/09/29 03:07:57;;;;;;;23.00;11.30;;;;;;;9.53;100.00;101691.53;109598;1241;62903;-76
2023/09/29 03:10:28;;;;;;;21.50;12.50;;;;;;;9.50;100.00;101694.61;109603;1244;60578;-77
2023/09/29 03:12:57;;;;;;;20.70;10.90;;;;;;;9.49;100.00;101693.14;109616;1245;57725;-77
2023/09/29 03:15:27;;;;;;;18.80;11.90;;;;;;;9.46;100.00;101694.98;109693;1241;73428;-76
2023/09/29 03:17:56;;;;;;;19.20;12.00;;;;;;;9.47;100.00;101697.42;109512;1245;62010;-76
2023/09/29 03:20:28;;;;;;;18.50;12.10;;;;;;;9.49;100.00;101705.10;109663;1241;70434;-76
2023/09/29 03:23:04;;;;;;;19.70;10.70;;;;;;;9.68;100.00;101705.84;109655;1241;73002;-78
2023/09/29 03:25:33;;;;;;;17.70;11.30;;;;;;;9.88;100.00;101710.54;109573;1244;57554;-78
2023/09/29 03:28:04;;;;;;;20.20;12.00;;;;;;;10.00;100.00;101706.08;109603;1244;60989;-76
2023/09/29 03:30:32;;;;;;;18.30;10.90;;;;;;;9.96;100.00;101706.47;109462;1241;72924;-76
2023/09/29 03:33:01;;;;;;;21.70;12.20;;;;;;;9.88;100.00;101707.80;109607;1241;72364;-77
2023/09/29 03:35:30;;;;;;;23.70;13.60;;;;;;;9.79;100.00;101705.77;109491;1242;61390;-76
2023/09/29 03:38:00;;;;;;;18.30;11.90;;;;;;;9.73;100.00;101705.39;109528;1244;63086;-77
2023/09/29 03:40:29;;;;;;;19.50;11.90;;;;;;;9.65;100.00;101704.97;109432;1244;57717;-78
2023/09/29 03:42:58;;;;;;;23.60;13.50;;;;;;;9.57;100.00;101703.48;109598;1243;60415;-76
2023/09/29 03:45:27;;;;;;;22.50;12.50;;;;;;;9.54;100.00;101702.05;109631;1242;73444;-78
2023/09/29 03:47:56;;;;;;;24.10;14.80;;;;;;;9.52;100.00;101703.73;109484;1243;72549;-76
2023/09/29 03:50:24;;;;;;;17.60;11.80;;;;;;;9.47;100.00;101705.06;109587;1243;70840;-77
2023/09/29 03:52:53;;;;;;;20.50;12.30;;;;;;;9.39;100.00;101702.33;109594;1242;63742;-77
2023/09/29 03:55:22;;;;;;;20.70;12.00;;;;;;;9.32;100.00;101703.20;109620;1244;57662;-76
2023/09/29 03:57:51;;;;;;;21.00;12.00;;;;;;;9.27;100.00;101699.13;109491;1243;57134;-76
2023/09/29 04:00:21;;;;;;;21.10;12.50;;;;;;;9.33;100.00;101699.02;109603;1244;72882;-77
2023/09/29 04:02:50;;;;;;;22.40;11.80;;;;;;;9.30;100.00;101697.91;109507;1246;61778;-78
2023/09/29 04:05:20;;;;;;;19.30;12.00;;;;;;;9.24;100.00;101702.05;109519;1242;69617;-77
2023/09/29 04:07:49;;;;;;;19.20;12.50;;;;;;;9.22;100.00;101708.05;109401;1244;63663;-77
2023/09/29 04:10:20;;;;;;;21.00;11.90;;;;;;;9.16;100.00;101714.27;109584;1245;57658;-77
2023/09/29 04:12:49;;;;;;;19.50;11.80;;;;;;;9.10;100.00;101716.33;109507;1246;57250;-77
2023/09/29 04:15:19;;;;;;;20.40;12.00;;;;;;;9.03;100.00;101719.26;109649;1244;62772;-77
2023/09/29 04:17:47;;;;;;;21.90;12.80;;;;;;;9.03;100.00;101722.39;109429;1243;71990;-77
2023/09/29 04:20:17;;;;;;;24.40;12.10;;;;;;;9.13;100.00;101723.63;109647;1243;60391;-77
2023/09/29 04:22:46;;;;;;;20.00;13.10;;;;;;;9.22;100.00;101717.81;109625;1243;74058;-76
2023/09/29 04:25:16;;;;;;;26.90;12.90;;;;;;;9.60;100.00;101726.11;109489;1245;57716;-77
2023/09/29 04:27:45;;;;;;;23.00;13.50;;;;;;;9.76;100.00;101724.73;109658;1243;60966;-76
2023/09/29 04:30:14;;;;;;;24.60;13.30;;;;;;;10.00;100.00;101724.35;109632;1243;73978;-74
2023/09/29 04:32:43;;;;;;;24.10;13.70;;;;;;;9.96;100.00;101727.67;109660;1243;71661;-74
2023/09/29 04:35:12;;;;;;;22.90;13.70;;;;;;;9.98;100.00;101727.38;109668;1243;70252;-74
2023/09/29 04:37:41;;;;;;;25.30;14.20;;;;;;;10.08;100.00;101725.15;109651;1245;74120;-74
2023/09/29 04:40:10;;;;;;;24.70;14.50;;;;;;;10.08;100.00;101728.27;109705;1244;62243;-74
2023/09/29 04:42:39;;;;;;;24.70;13.40;;;;;;;10.02;100.00;101728.56;109696;1243;61043;-75
2023/09/29 04:45:08;;;;;;;23.50;13.70;;;;;;;9.97;100.00;101731.98;109672;1244;73882;-75
2023/09/29 04:47:38;;;;;;;27.20;15.70;;;;;;;9.95;100.00;101729.48;109504;1243;72522;-74
2023/09/29 04:50:11;;;;;;;32.00;16.60;;;;;;;9.96;100.00;101731.02;109395;1243;70758;-75
2023/09/29 04:52:40;;;;;;;33.50;17.30;;;;;;;9.99;100.00;101734.48;109471;1243;74392;-73
2023/09/29 04:55:09;;;;;;;30.20;17.80;;;;;;;10.05;100.00;101732.59;109437;1244;62364;-76
2023/09/29 04:57:38;;;;;;;26.00;16.10;;;;;;;10.10;100.00;101733.20;109367;1243;61675;-76
2023/09/29 05:00:08;;;;;;;26.80;15.40;;;;;;;10.24;100.00;101741.31;109597;1243;73804;-77
2023/09/29 05:02:37;;;;;;;27.80;14.40;;;;;;;10.37;100.00;101740.46;109525;1244;72564;-77
2023/09/29 05:05:07;;;;;;;27.40;14.00;;;;;;;10.47;100.00;101739.70;109616;1244;68849;-77
2023/09/29 05:07:36;;;;;;;31.40;14.70;;;;;;;10.59;100.00;101742.86;109626;1244;74287;-82
2023/09/29 05:10:06;;;;;;;27.50;13.70;;;;;;;10.75;100.00;101744.23;109470;1246;63802;-75
2023/09/29 05:12:34;;;;;;;22.00;15.30;;;;;;;10.83;100.00;101746.03;109452;1245;61459;-75
2023/09/29 05:15:04;;;;;;;27.20;14.60;;;;;;;10.91;100.00;101745.62;109517;1246;63428;-75
2023/09/29 05:17:34;;;;;;;30.20;13.50;;;;;;;10.98;100.00;101744.36;109605;1245;60626;-76
2023/09/29 05:20:19;;;;;;;30.60;15.30;;;;;;;11.04;100.00;101742.59;109449;1243;69439;-77
2023/09/29 05:22:47;;;;;;;24.40;14.40;;;;;;;11.27;100.00;101748.41;109502;1244;73897;-76
2023/09/29 05:25:16;;;;;;;31.20;14.50;;;;;;;11.69;100.00;101748.69;109607;1245;57181;-76
2023/09/29 05:27:45;;;;;;;38.60;16.20;;;;;;;11.81;100.00;101749.36;109508;1245;57195;-76
2023/09/29 05:30:16;;;;;;;25.90;15.70;;;;;;;12.17;100.00;101747.33;109678;1243;62102;-76
2023/09/29 05:32:45;;;;;;;38.80;17.10;;;;;;;12.19;100.00;101750.50;109551;1244;61686;-76
2023/09/29 05:35:14;;;;;;;31.30;16.20;;;;;;;12.13;100.00;101755.75;109667;1242;70203;-76
2023/09/29 05:37:42;;;;;;;28.10;14.70;;;;;;;12.06;100.00;101760.98;109613;1245;74722;-75
2023/09/29 05:40:11;;;;;;;33.70;16.50;;;;;;;11.96;100.00;101757.73;109433;1246;57167;-75
2023/09/29 05:42:43;;;;;;;42.60;16.80;;;;;;;11.82;100.00;101761.33;109617;1243;57703;-75
2023/09/29 05:45:21;;;;;;;39.70;16.50;;;;;;;11.77;100.00;101758.13;109609;1243;73547;-75
2023/09/29 05:47:51;;;;;;;31.10;16.90;;;;;;;11.72;100.00;101760.71;109478;1244;72097;-75
2023/09/29 05:50:21;;;;;;;29.60;17.40;;;;;;;11.75;100.00;101761.38;109628;1244;59703;-75
2023/09/29 05:52:50;;;;;;;29.30;16.60;;;;;;;11.85;100.00;101758.39;109480;1244;73555;-75
2023/09/29 05:55:36;;;;;;;26.70;16.50;;;;;;;11.94;100.00;101763.42;109584;1245;61135;-75
2023/09/29 05:58:05;;;;;;;35.70;16.90;;;;;;;11.99;100.00;101766.42;109585;1244;60198;-76
2023/09/29 06:00:34;;;;;;;32.20;17.70;;;;;;;12.10;100.00;101769.58;109489;1243;63178;-76
2023/09/29 06:03:03;;;;;;;33.40;17.70;;;;;;;12.21;100.00;101771.13;109607;1244;60913;-76
2023/09/29 06:05:32;;;;;;;38.20;17.60;;;;;;;12.34;100.00;101769.50;109490;1244;69620;-75
2023/09/29 06:08:01;;;;;;;30.60;17.20;;;;;;;12.61;100.00;101769.34;109594;1244;63980;-75
2023/09/29 06:10:30;;;;;;;25.90;17.00;;;;;;;12.79;100.00;101768.38;109411;1246;57631;-76
2023/09/29 06:12:59;;;;;;;32.90;16.50;;;;;;;13.04;100.00;101769.71;109488;1244;57609;-84
2023/09/29 06:15:32;;;;;;;39.00;17.50;;;;;;;13.25;100.00;101764.84;109448;1244;72443;-76
2023/09/29 06:18:01;;;;;;;27.70;16.50;;;;;;;13.42;100.00;101768.25;109462;1243;61182;-76
2023/09/29 06:20:30;;;;;;;27.60;15.60;;;;;;;13.57;100.00;101768.77;109515;1243;59864;-75
2023/09/29 06:22:59;;;;;;;25.20;14.50;;;;;;;13.69;100.00;101764.98;109581;1244;62468;-76
2023/09/29 06:25:28;;;;;;;29.60;15.40;;;;;;;13.90;100.00;101764.55;109541;1245;62692;-76
2023/09/29 06:27:57;;;;;;;27.30;14.50;;;;;;;14.06;100.00;101761.91;109286;1244;61356;-75
2023/09/29 06:30:25;;;;;;;29.40;14.70;;;;;;;14.18;100.00;101761.21;109461;1244;74117;-75
2023/09/29 06:32:54;;;;;;;26.70;15.50;;;;;;;14.24;100.00;101763.41;109445;1244;72263;-76
2023/09/29 06:35:23;;;;;;;26.40;14.70;;;;;;;14.30;100.00;101766.09;109482;1243;70136;-76
2023/09/29 06:37:52;;;;;;;31.20;15.70;;;;;;;14.44;100.00;101768.51;109412;1244;62234;-76
2023/09/29 06:40:23;;;;;;;22.40;13.90;;;;;;;14.62;100.00;101767.89;109492;1245;57676;-76
2023/09/29 06:42:51;;;;;;;23.80;14.60;;;;;;;14.75;100.00;101764.31;109452;1243;57195;-77
2023/09/29 06:45:21;;;;;;;23.50;13.30;;;;;;;14.93;100.00;101766.83;109630;1243;62792;-76
2023/09/29 06:47:59;;;;;;;26.60;14.20;;;;;;;15.09;100.00;101765.98;109447;1244;71966;-76
2023/09/29 06:50:28;;;;;;;26.00;13.20;;;;;;;15.12;100.00;101757.74;109460;1243;70663;-76
2023/09/29 06:52:57;;;;;;;23.80;13.50;;;;;;;15.26;100.00;101762.93;109252;1243;63701;-76
2023/09/29 06:55:26;;;;;;;24.10;12.90;;;;;;;15.37;100.00;101765.66;109475;1243;57184;-75
2023/09/29 06:57:55;;;;;;;24.60;14.70;;;;;;;15.50;100.00;101764.46;109485;1244;59531;-77
2023/09/29 07:00:25;;;;;;;27.60;13.70;;;;;;;15.68;100.00;101762.64;109450;1242;73323;-77
2023/09/29 07:02:54;;;;;;;37.20;14.40;;;;;;;15.74;100.00;101763.38;109469;1244;61986;-77
2023/09/29 07:05:23;;;;;;;37.20;14.80;;;;;;;15.88;100.00;101766.13;109217;1243;390759;-77
2023/09/29 07:07:54;;;;;;;27.40;13.10;;;;;;;16.05;100.00;101769.73;109324;1244;73691;-76
2023/09/29 07:10:23;;;;;;;32.70;14.80;;;;;;;16.26;100.00;101771.79;109409;1244;60614;-76
2023/09/29 07:12:52;;;;;;;26.30;13.00;;;;;;;16.38;100.00;101775.20;109323;1245;60908;-76
2023/09/29 07:15:21;;;;;;;22.30;12.70;;;;;;;16.49;100.00;101774.10;109483;1243;73740;-77
2023/09/29 07:17:52;;;;;;;20.00;12.70;;;;;;;16.65;100.00;101775.48;109292;1247;72536;-78
2023/09/29 07:20:21;;;;;;;25.50;14.30;;;;;;;16.80;100.00;101773.78;109436;1243;70491;-77
2023/09/29 07:22:51;;;;;;;34.20;15.40;;;;;;;16.85;100.00;101773.49;109424;1244;63103;-78
2023/09/29 07:25:21;;;;;;;21.40;12.90;;;;;;;17.06;100.00;101775.33;109313;1245;57586;-77
2023/09/29 07:27:49;;;;;;;23.80;13.40;;;;;;;17.18;100.00;101774.11;109447;1244;61014;-77
2023/09/29 07:30:18;;;;;;;29.00;14.00;;;;;;;17.25;100.00;101772.86;109497;1244;63324;-77
2023/09/29 07:32:47;;;;;;;24.20;13.50;;;;;;;17.34;100.00;101770.11;109339;1243;61542;-77
2023/09/29 07:35:18;;;;;;;35.00;14.20;;;;;;;17.49;100.00;101771.50;109476;1243;70511;-77
2023/09/29 07:37:48;;;;;;;27.30;13.20;;;;;;;17.69;100.00;101771.53;109275;1244;74293;-78
2023/09/29 07:40:17;;;;;;;29.40;13.10;;;;;;;17.90;100.00;101767.70;109318;1245;61607;-78
2023/09/29 07:42:47;;;;;;;23.10;11.20;;;;;;;18.12;100.00;101770.69;109474;1245;59914;-78
2023/09/29 07:45:17;;;;;;;20.80;11.60;;;;;;;18.26;100.00;101770.30;109484;1243;62180;-78
2023/09/29 07:47:47;;;;;;;19.30;11.20;;;;;;;18.36;100.00;101768.05;109481;1244;61501;-76
2023/09/29 07:50:17;;;;;;;24.60;11.30;;;;;;;18.55;100.00;101766.36;109339;1242;69621;-77
2023/09/29 07:52:45;;;;;;;19.70;9.80;;;;;;;18.68;98.57;101764.62;109389;1244;74141;-76
2023/09/29 07:55:15;;;;;;;17.50;11.00;;;;;;;18.85;97.36;101765.45;109476;1245;61424;-78
2023/09/29 07:57:43;;;;;;;19.40;11.40;;;;;;;18.96;96.68;101765.48;109610;1244;60682;-78
2023/09/29 08:00:14;;;;;;;17.30;10.20;;;;;;;19.10;95.94;101762.10;109508;1244;62560;-77
2023/09/29 08:02:44;;;;;;;22.80;10.80;;;;;;;19.29;93.96;101755.55;109509;1244;72650;-78
2023/09/29 08:05:15;;;;;;;21.70;11.00;;;;;;;19.37;94.11;101757.85;109438;1245;70970;-78
2023/09/29 08:07:44;;;;;;;26.10;11.60;;;;;;;19.48;94.23;101757.35;109661;1242;63638;-77
2023/09/29 08:10:13;;;;;;;27.50;11.20;;;;;;;19.67;93.04;101756.64;109652;1244;57160;-77
2023/09/29 08:12:42;;;;;;;21.60;10.90;;;;;;;19.87;92.14;101755.95;109539;1244;57179;-76
2023/09/29 08:15:13;;;;;;;22.00;11.20;;;;;;;20.08;91.22;101758.48;109633;1243;73450;-77
2023/09/29 08:17:43;;;;;;;20.30;9.90;;;;;;;20.24;90.91;101755.02;109654;1244;61782;-77
2023/09/29 08:20:14;;;;;;;14.40;8.60;;;;;;;20.52;88.65;101750.20;109634;1244;68171;-79
2023/09/29 08:22:44;;;;;;;21.30;9.60;;;;;;;20.76;86.27;101752.45;109503;1243;74201;-78
2023/09/29 08:25:16;;;;;;;18.40;9.70;;;;;;;20.82;85.46;101753.70;109486;1245;57381;-78
2023/09/29 08:27:45;;;;;;;24.40;10.40;;;;;;;20.94;86.26;101748.00;109650;1244;59398;-78
2023/09/29 08:30:14;;;;;;;15.90;9.90;;;;;;;21.12;85.18;101748.67;109665;1244;64533;-78
2023/09/29 08:32:43;;;;;;;16.00;9.80;;;;;;;21.25;83.97;101748.17;109622;1244;72574;-78
2023/09/29 08:35:15;;;;;;;17.90;9.60;;;;;;;21.43;81.81;101743.17;109663;1244;69949;-78
2023/09/29 08:37:45;;;;;;;17.00;9.50;;;;;;;21.49;80.98;101743.34;109506;1243;64720;-78
2023/09/29 08:40:19;;;;;;;16.30;9.30;;;;;;;21.54;80.54;101740.14;109487;1247;60213;-77
2023/09/29 08:42:52;;;;;;;16.00;8.20;;;;;;;21.69;79.10;101737.86;109634;1244;60554;-78
2023/09/29 08:45:23;;;;;;;14.70;8.70;;;;;;;21.77;80.44;101730.48;109509;1243;73922;-78
2023/09/29 08:47:52;;;;;;;19.80;8.60;;;;;;;21.90;80.20;101729.44;109823;1244;72619;-78
2023/09/29 08:50:24;;;;;;;18.70;8.70;;;;;;;22.05;79.01;101726.34;109450;1242;60522;-77
2023/09/29 08:52:56;;;;;;;13.40;8.70;;;;;;;22.22;78.25;101724.02;109324;1244;63970;-78
2023/09/29 08:55:27;;;;;;;17.70;9.50;;;;;;;22.32;75.08;101720.45;109354;1245;57674;-77
2023/09/29 08:57:56;;;;;;;16.90;8.30;;;;;;;22.54;75.92;101721.14;109343;1244;60153;-78
2023/09/29 09:00:26;;;;;;;14.40;7.80;;;;;;;22.78;72.98;101725.58;109340;1244;72512;-78
2023/09/29 09:02:58;;;;;;;17.40;7.20;;;;;;;23.00;72.40;101720.77;109341;1244;61054;-78
2023/09/29 09:05:28;;;;;;;15.70;7.50;;;;;;;23.08;69.91;101718.29;109465;1244;69403;-77
2023/09/29 09:08:01;;;;;;;13.60;7.40;;;;;;;23.25;69.42;101714.09;109455;1243;74140;-78
2023/09/29 09:10:35;;;;;;;17.50;8.20;;;;;;;23.29;69.87;101710.09;109462;1244;57674;-79
2023/09/29 09:13:05;;;;;;;23.60;9.00;;;;;;;23.47;68.29;101711.95;109473;1243;57673;-78
2023/09/29 09:15:34;;;;;;;16.10;7.70;;;;;;;23.74;68.81;101712.35;109265;1244;71645;-78
2023/09/29 09:18:04;;;;;;;12.40;7.50;;;;;;;23.90;67.89;101705.73;109288;1244;61449;-78
2023/09/29 09:20:33;;;;;;;15.20;7.70;;;;;;;24.00;69.12;101707.26;109566;1244;70546;-79
2023/09/29 09:23:03;;;;;;;12.10;7.70;;;;;;;24.12;69.13;101703.22;109452;1242;62649;-78
2023/09/29 09:25:42;;;;;;;18.20;9.10;;;;;;;24.33;65.12;101696.75;109282;1247;57855;-78
2023/09/29 09:28:16;;;;;;;13.00;8.00;;;;;;;24.40;62.81;101697.41;109217;1244;61006;-79
2023/09/29 09:30:47;;;;;;;10.80;7.50;;;;;;;24.51;64.26;101696.59;109293;1244;62433;-77
2023/09/29 09:33:22;;;;;;;21.30;8.20;;;;;;;24.57;61.87;101695.04;109462;1244;71275;-78
2023/09/29 09:35:51;;;;;;;16.00;7.80;;;;;;;24.75;60.24;101697.96;109561;1244;69873;-76
2023/09/29 09:38:31;;;;;;;15.10;7.50;;;;;;;24.92;59.27;101694.06;109415;1243;63628;-78
2023/09/29 09:41:01;;;;;;;21.10;12.20;;;;;;;25.06;60.80;101694.35;109565;1245;60341;-78
2023/09/29 09:43:34;;;;;;;17.40;7.00;;;;;;;25.10;58.17;101693.09;109702;1245;60680;-77
2023/09/29 09:46:12;;;;;;;12.50;6.60;;;;;;;25.25;58.22;101692.70;109732;1243;62711;-77
2023/09/29 09:49:08;;;;;;;10.90;6.70;;;;;;;25.34;57.13;101690.70;109829;1244;72014;-77
2023/09/29 09:51:42;;;;;;;13.80;7.50;;;;;;;25.49;56.47;101684.83;109833;1244;70007;-78
2023/09/29 09:54:14;;;;;;;13.80;7.10;;;;;;;25.72;56.43;101680.59;109599;1246;72921;-77
2023/09/29 09:57:00;;;;;;;11.30;7.30;;;;;;;25.87;54.60;101678.60;109477;1246;61518;-78
2023/09/29 09:59:31;;;;;;;13.20;7.20;;;;;;;26.03;53.55;101676.30;109587;1243;60343;-79
2023/09/29 10:02:03;;;;;;;13.70;6.70;;;;;;;26.11;54.08;101673.23;109413;1248;62547;-79
2023/09/29 10:04:36;;;;;;;13.90;7.70;;;;;;;26.05;53.87;101672.39;109471;1246;60904;-79
2023/09/29 10:07:05;;;;;;;;;;;;;;;25.99;54.12;101673.14;109419;1243;61627;-79
2023/09/29 10:09:49;;;;;;;18.60;6.90;;;;;;;26.05;53.71;101665.47;109296;1244;74400;-78
2023/09/29 10:12:26;;;;;;;12.80;6.80;;;;;;;25.95;52.31;101658.84;109260;1245;60557;-78
2023/09/29 10:14:58;;;;;;;13.20;6.80;;;;;;;26.18;52.78;101658.10;109263;1244;60490;-79
2023/09/29 10:17:39;;;;;;;12.90;6.50;;;;;;;26.42;52.96;101655.84;109200;1248;62628;-78
2023/09/29 10:20:24;;;;;;;13.10;6.90;;;;;;;26.72;51.80;101654.73;109245;1243;63421;-77
2023/09/29 10:23:06;;;;;;;10.60;6.40;;;;;;;27.06;50.85;101652.60;109234;1244;70901;-79
2023/09/29 10:25:36;;;;;;;;;;;;;;;27.22;49.80;101650.85;109305;1246;63425;-78
2023/09/29 10:28:07;;;;;;;11.40;6.00;;;;;;;27.39;50.10;101650.85;109392;1244;57647;-79
2023/09/29 10:30:39;;;;;;;12.60;5.40;;;;;;;27.71;49.49;101647.37;109247;1248;57718;-79
2023/09/29 10:33:11;;;;;;;12.90;5.90;;;;;;;28.08;49.73;101645.41;109251;1245;62754;-80
2023/09/29 10:35:47;;;;;;;10.20;6.10;;;;;;;28.46;48.63;101635.11;109401;1242;71087;-80
2023/09/29 10:38:27;;;;;;;12.40;5.60;;;;;;;28.54;43.61;101635.02;109283;1244;70576;-79
2023/09/29 10:41:00;;;;;;;9.50;5.10;;;;;;;28.53;43.29;101633.43;109320;1244;63487;-80
2023/09/29 10:43:43;;;;;;;10.10;5.60;;;;;;;28.85;42.66;101630.73;109458;1245;57348;-80
2023/09/29 10:46:15;;;;;;;9.30;5.20;;;;;;;28.78;42.13;101630.58;109330;1244;57786;-79
2023/09/29 10:48:50;;;;;;;11.60;5.20;;;;;;;29.18;42.14;101624.92;109410;1246;63548;-80
2023/09/29 10:51:32;;;;;;;9.20;4.70;;;;;;;29.49;40.21;101618.11;109511;1244;60847;-80
2023/09/29 10:54:06;;;;;;;8.40;6.10;;;;;;;29.48;39.79;101618.27;109380;1244;59577;-80
2023/09/29 10:56:37;;;;;;;11.20;5.40;;;;;;;29.01;40.66;101615.58;109447;1247;70995;-80
2023/09/29 10:59:09;;;;;;;15.20;5.90;;;;;;;29.27;40.55;101615.75;109452;1248;60866;-80
2023/09/29 11:01:38;;;;;;;10.00;5.80;;;;;;;29.60;40.45;101609.05;109385;1244;57643;-79
2023/09/29 11:04:09;;;;;;;13.10;5.10;;;;;;;29.80;39.54;101604.21;109521;1248;62828;-80
2023/09/29 11:06:46;;;;;;;7.70;5.20;;;;;;;29.48;39.41;101599.38;109703;1245;60903;-80
2023/09/29 11:09:17;;;;;;;10.50;5.30;;;;;;;29.54;39.38;101602.75;109534;1243;61612;-80
2023/09/29 11:11:46;;;;;;;11.90;5.90;;;;;;;29.84;39.05;101600.85;109515;1246;74223;-80
2023/09/29 11:14:16;;;;;;;8.20;4.90;;;;;;;30.41;39.49;101601.46;109599;1246;57625;-80
2023/09/29 11:16:58;;;;;;;12.80;5.60;;;;;;;30.51;37.65;101597.61;109557;1244;61077;-80